Airfield :
LOGIN :

Register | Disclaimer

   EN    FR    IT 

 










Legend :    VFR   Marginal VFR   IFR   Intensive IFR   Very Intensive IFR
Visi :
Ceiling :
>= 8 km
>= 3000ft
5 to 8 km
1000 to 3000 ft
1500m to 5 km
500 to 1000 ft
800 to 1500m
200 to 500 ft
< 800m
< 200 ft
Symbols :   Thunderstorms  Fog  Heavy snow  Heavy precipitations  Wind > 20 kt
SIGMETs :     Misc.  Thunderstorms  Icing  Turbulence  Mountain Waves  Volcanic Ashes







- Airport Elevation : 423 ft
- IATA code : PIS
- Download approach charts


LFBI - Poitiers

CURRENT METAR :
  • 160630Z AUTO 24005KT 220V280 CAVOK 18/17 Q1014 NOSIG

EXPIRED METARs :
  • 160600Z AUTO 32006KT CAVOK 18/17 Q1013 NOSIG
  • 160530Z AUTO 23003KT 200V310 CAVOK 18/17 Q1014 NOSIG
  • 160500Z AUTO 25003KT 220V280 CAVOK 18/17 Q1013 TEMPO VRB15G30KT 4000 SHRA SCT050CB
  • 160430Z AUTO 17003KT 9999 ///TCU 18/16 Q1014 TEMPO VRB15G30KT 4000 SHRA SCT050CB
  • 160400Z AUTO 33006KT 9999 -RA FEW039/// SCT072/// OVC110/// ///CB 19/17 Q1013 TEMPO VRB15G30KT 4000 SHRA
  • 160330Z AUTO 25008KT 9999 -RA ///CB 19/16 Q1014 TEMPO VRB15G30KT 4000 SHRA

TAF TAF LFBI
Valid from the 16 at 06:00 until the 17 at 06:00 UTC


160500Z 1606/1706 34005KT CAVOK
TEMPO 1616/1618 29015G30KT 4000 SHRA BKN050TCU
BECMG 1620/1622 BKN020
No reported NOTAMs for that airfield.
1 SIGMET reported for the Bordeaux FIR (LFBB) :
 
Embedded thunderstorms
LFBB SIGMET 5 VALID 160515/160700 LFPW
LFBB BORDEAUX FIR/UIR EMBD TS OBS WI N4715 E00000 - N4715 E00200 - N4630 E00300 - N4215 E00230 - N4300 W00145 - N4430 W00145 - N4500 W00030 - N4715 E00000 TOP FL380 STNR NC=



MET'MAP, your aeronautical weather chart ! - Copyright ORBIFLY December 2007 - Disclaimer

ORBIFLY MET'MAP TEAM :

Programming & Development : Alexandra Zaïnal
Concept & Development : Baudouin d'Aumeries
Co-Development & Prog : Marc-Olivier Méhu
Technical & hardware support : Manuel Goepfert

Contact : metmap@orbifly.com




SOURCES & CREDITS :

   NOAA